Terminal Aerodrome Forecast
Issued by NWS

Home | Current Version | Previous Version | Graphics & Text | Print | Product List | Glossary On
Versions: 1 2 3 4 5 6 7 8 9 10 11 12 13 14 15 16 17 18 19 20 21 22 23 24
000
FTUS43 KLOT 201120
TAFMDW
TAF
KMDW 201120Z 2012/2112 21011G17KT P6SM SCT200
     FM201600 21015G24KT P6SM SCT200
     FM210200 21016G24KT P6SM SCT200 WS015/22050KT
     FM211000 22013KT P6SM BKN150=

USA.gov is the U.S. government's official web portal to all federal, state and local government web resources and services.